Thunder radar more information blitzortung!


Radar de pluja more information rain snow radar


Visita la nostra xarxa de llocs de meteo:

Template documentation
and downloads

And another site



No particular awareness of the weather is required.    There are no Weather-warnings

Pagina Historial Weather Underground text

Diari Resum Octubre 22, 2017 Unitats:  Tant    Imperial   Mètric
« Previous Dia
SegĂźent Dia »
Diari Setmana Mensual Anual Personalitzada
  Maxima: Minima: Media:
Temperatura: 69.8 °F /  21.0 °C 55.4 °F /  13.0 °C 63 °F /  17.2 °C
Punt de rosada: 58.6 °F /  14.8 °C 41.4 °F /  5.2 °C 45.9 °F /  7.7 °C
Humitat: 83 % 47 % 54 %
Wind Speed: 11.5 mph /  18.5 km/h - 3 mph /  4.8 km/h
RĂ fegues de vent: 11.5 mph /  18.5 km/h - -
Vent:- - WSW
Pression baro: 30.3 in /  1026.0 hPa 30.2 in /  1021.9 hPa -
Precipitacions: 0 in /  0.0 mm    
Historical Graphs
 
 
Dades de taula per Octubre 22, 2017
Temps Temperatura Punt de rosada Pression baro Vent Wind Speed RĂ fegues de vent Humitat Rainfall Rate (Hourly)
00:03 63.7 °F /  17.6 °C 58.1 °F /  14.5 °C 30.2 in /  1021.9 hPa WSW 2.3 mph /  3.7 km/h 2.3 mph /  3.7 km/h 82 % 0 in /  0.0 mm
00:05 59.5 °F /  15.3 °C 46 °F /  7.8 °C 30.2 in /  1022.9 hPa NW 1 mph /  1.6 km/h 2 mph /  3.2 km/h 61 % 0 in /  0.0 mm
00:08 63.7 °F /  17.6 °C 58.1 °F /  14.5 °C 30.2 in /  1021.9 hPa WSW 1.2 mph /  1.9 km/h   82 % 0 in /  0.0 mm
00:13 63.9 °F /  17.7 °C 58.6 °F /  14.8 °C 30.2 in /  1021.9 hPa WSW 1.2 mph /  1.9 km/h   83 % 0 in /  0.0 mm
00:15 59 °F /  15.0 °C 45.7 °F /  7.6 °C 30.2 in /  1022.9 hPa North 2 mph /  3.2 km/h 2 mph /  3.2 km/h 61 % 0 in /  0.0 mm
00:25 59 °F /  15.0 °C 45.7 °F /  7.6 °C 30.2 in /  1022.9 hPa West 1 mph /  1.6 km/h 4 mph /  6.4 km/h 61 % 0 in /  0.0 mm
00:35 58.8 °F /  14.9 °C 45 °F /  7.2 °C 30.2 in /  1023.9 hPa WNW 2 mph /  3.2 km/h 5 mph /  8.0 km/h 60 % 0 in /  0.0 mm
00:45 58.6 °F /  14.8 °C 44.8 °F /  7.1 °C 30.2 in /  1023.9 hPa NW 2 mph /  3.2 km/h 3 mph /  4.8 km/h 60 % 0 in /  0.0 mm
00:55 58.6 °F /  14.8 °C 44.2 °F /  6.8 °C 30.2 in /  1023.9 hPa NW 5 mph /  8.0 km/h 5 mph /  8.0 km/h 59 % 0 in /  0.0 mm
01:05 58.5 °F /  14.7 °C 43.7 °F /  6.5 °C 30.2 in /  1023.9 hPa WNW 5 mph /  8.0 km/h 6 mph /  9.7 km/h 58 % 0 in /  0.0 mm
01:15 58.3 °F /  14.6 °C 43.5 °F /  6.4 °C 30.2 in /  1023.9 hPa West 2 mph /  3.2 km/h 3 mph /  4.8 km/h 58 % 0 in /  0.0 mm
01:25 58.1 °F /  14.5 °C 43.3 °F /  6.3 °C 30.2 in /  1023.9 hPa West 2 mph /  3.2 km/h 3 mph /  4.8 km/h 58 % 0 in /  0.0 mm
01:35 57.7 °F /  14.3 °C 43.2 °F /  6.2 °C 30.2 in /  1023.9 hPa WNW 1 mph /  1.6 km/h 2 mph /  3.2 km/h 58 % 0 in /  0.0 mm
01:45 57.6 °F /  14.2 °C 43 °F /  6.1 °C 30.2 in /  1023.9 hPa North 2 mph /  3.2 km/h 2 mph /  3.2 km/h 58 % 0 in /  0.0 mm
01:55 57.4 °F /  14.1 °C 42.6 °F /  5.9 °C 30.2 in /  1023.9 hPa NNW 1 mph /  1.6 km/h 6 mph /  9.7 km/h 58 % 0 in /  0.0 mm
02:05 57.2 °F /  14.0 °C 42.4 °F /  5.8 °C 30.2 in /  1023.9 hPa NNW 2 mph /  3.2 km/h 5 mph /  8.0 km/h 58 % 0 in /  0.0 mm
02:15 56.8 °F /  13.8 °C 42.6 °F /  5.9 °C 30.2 in /  1023.9 hPa NNE 1 mph /  1.6 km/h 3 mph /  4.8 km/h 59 % 0 in /  0.0 mm
02:25 56.7 °F /  13.7 °C 42.4 °F /  5.8 °C 30.2 in /  1023.9 hPa NE 2 mph /  3.2 km/h 5 mph /  8.0 km/h 59 % 0 in /  0.0 mm
02:35 56.5 °F /  13.6 °C 42.3 °F /  5.7 °C 30.2 in /  1023.9 hPa NNE 1 mph /  1.6 km/h 2 mph /  3.2 km/h 59 % 0 in /  0.0 mm
02:45 56.3 °F /  13.5 °C 42.6 °F /  5.9 °C 30.2 in /  1023.9 hPa Calm   2 mph /  3.2 km/h 60 % 0 in /  0.0 mm
02:55 55.9 °F /  13.3 °C 42.3 °F /  5.7 °C 30.2 in /  1023.9 hPa North 1 mph /  1.6 km/h 2 mph /  3.2 km/h 60 % 0 in /  0.0 mm
03:05 55.8 °F /  13.2 °C 42.1 °F /  5.6 °C 30.2 in /  1023.9 hPa WNW 1 mph /  1.6 km/h 2 mph /  3.2 km/h 60 % 0 in /  0.0 mm
03:15 55.8 °F /  13.2 °C 42.1 °F /  5.6 °C 30.2 in /  1023.9 hPa WNW 1 mph /  1.6 km/h 3 mph /  4.8 km/h 60 % 0 in /  0.0 mm
03:25 55.4 °F /  13.0 °C 41.7 °F /  5.4 °C 30.2 in /  1023.9 hPa Calm   1 mph /  1.6 km/h 60 % 0 in /  0.0 mm
03:35 55.4 °F /  13.0 °C 42.3 °F /  5.7 °C 30.2 in /  1023.9 hPa NNE 1 mph /  1.6 km/h 2 mph /  3.2 km/h 61 % 0 in /  0.0 mm
03:45 55.4 °F /  13.0 °C 42.3 °F /  5.7 °C 30.3 in /  1024.9 hPa NW 1 mph /  1.6 km/h 4 mph /  6.4 km/h 61 % 0 in /  0.0 mm
03:55 55.6 °F /  13.1 °C 42.3 °F /  5.7 °C 30.3 in /  1024.9 hPa West 2 mph /  3.2 km/h 3 mph /  4.8 km/h 61 % 0 in /  0.0 mm
04:05 55.4 °F /  13.0 °C 42.3 °F /  5.7 °C 30.3 in /  1024.9 hPa West 1 mph /  1.6 km/h 3 mph /  4.8 km/h 61 % 0 in /  0.0 mm
04:15 55.4 °F /  13.0 °C 42.6 °F /  5.9 °C 30.3 in /  1024.9 hPa Calm   2 mph /  3.2 km/h 62 % 0 in /  0.0 mm
04:25 57.2 °F /  14.0 °C 44.2 °F /  6.8 °C 30.3 in /  1024.9 hPa SW 1 mph /  1.6 km/h 2 mph /  3.2 km/h 62 % 0 in /  0.0 mm
04:35 57.9 °F /  14.4 °C 44.4 °F /  6.9 °C 30.3 in /  1024.9 hPa ENE 1 mph /  1.6 km/h 3 mph /  4.8 km/h 61 % 0 in /  0.0 mm
04:45 57.6 °F /  14.2 °C 44.2 °F /  6.8 °C 30.3 in /  1024.9 hPa NE 1 mph /  1.6 km/h 1 mph /  1.6 km/h 61 % 0 in /  0.0 mm
04:55 57.7 °F /  14.3 °C 44.8 °F /  7.1 °C 30.3 in /  1024.9 hPa Calm   3 mph /  4.8 km/h 62 % 0 in /  0.0 mm
05:05 58.6 °F /  14.8 °C 45.1 °F /  7.3 °C 30.3 in /  1026.0 hPa NE 1 mph /  1.6 km/h 3 mph /  4.8 km/h 61 % 0 in /  0.0 mm
05:15 59 °F /  15.0 °C 45.7 °F /  7.6 °C 30.3 in /  1024.9 hPa NE 2 mph /  3.2 km/h 3 mph /  4.8 km/h 61 % 0 in /  0.0 mm
05:25 59.4 °F /  15.2 °C 45.9 °F /  7.7 °C 30.3 in /  1024.9 hPa WNW 2 mph /  3.2 km/h 3 mph /  4.8 km/h 61 % 0 in /  0.0 mm
05:35 59.5 °F /  15.3 °C 45.7 °F /  7.6 °C 30.3 in /  1024.9 hPa WSW 2 mph /  3.2 km/h 5 mph /  8.0 km/h 60 % 0 in /  0.0 mm
05:45 60.6 °F /  15.9 °C 46.8 °F /  8.2 °C 30.3 in /  1024.9 hPa WSW 1 mph /  1.6 km/h 4 mph /  6.4 km/h 60 % 0 in /  0.0 mm
05:55 60.1 °F /  15.6 °C 46 °F /  7.8 °C 30.3 in /  1024.9 hPa West 5 mph /  8.0 km/h 5 mph /  8.0 km/h 60 % 0 in /  0.0 mm
06:05 60.8 °F /  16.0 °C 46.4 °F /  8.0 °C 30.3 in /  1026.0 hPa West 1 mph /  1.6 km/h 3 mph /  4.8 km/h 59 % 0 in /  0.0 mm
11:09 61.2 °F /  16.2 °C 46.8 °F /  8.2 °C 30.3 in /  1026.0 hPa WSW 3.5 mph /  5.6 km/h 3.5 mph /  5.6 km/h 59 % 0 in /  0.0 mm
11:10 61.2 °F /  16.2 °C 46.2 °F /  7.9 °C 30.3 in /  1026.0 hPa West 3.5 mph /  5.6 km/h 3.6 mph /  5.8 km/h 58 % 0 in /  0.0 mm
11:15 61 °F /  16.1 °C 46 °F /  7.8 °C 30.3 in /  1026.0 hPa West 11.5 mph /  18.5 km/h 11.5 mph /  18.5 km/h 58 % 0 in /  0.0 mm
11:20 61 °F /  16.1 °C 45.7 °F /  7.6 °C 30.3 in /  1026.0 hPa SW 4.6 mph /  7.4 km/h 4.6 mph /  7.4 km/h 57 % 0 in /  0.0 mm
11:25 61.2 °F /  16.2 °C 45.9 °F /  7.7 °C 30.3 in /  1024.9 hPa SSW 5.8 mph /  9.3 km/h 5.8 mph /  9.3 km/h 57 % 0 in /  0.0 mm
11:30 61.7 °F /  16.5 °C 46.8 °F /  8.2 °C 30.3 in /  1024.9 hPa WNW 4.9 mph /  7.9 km/h 4.9 mph /  7.9 km/h 58 % 0 in /  0.0 mm
11:35 62.1 °F /  16.7 °C 46.6 °F /  8.1 °C 30.3 in /  1024.9 hPa ENE 4.6 mph /  7.4 km/h 4.6 mph /  7.4 km/h 57 % 0 in /  0.0 mm
11:40 62.4 °F /  16.9 °C 46.9 °F /  8.3 °C 30.3 in /  1026.0 hPa WSW 2.9 mph /  4.7 km/h 2.9 mph /  4.7 km/h 57 % 0 in /  0.0 mm
11:45 63.1 °F /  17.3 °C 47.1 °F /  8.4 °C 30.3 in /  1026.0 hPa WSW 3.1 mph /  5.0 km/h 3.1 mph /  5.0 km/h 56 % 0 in /  0.0 mm
11:50 63.5 °F /  17.5 °C 47.5 °F /  8.6 °C 30.3 in /  1026.0 hPa SW 3.5 mph /  5.6 km/h 3.5 mph /  5.6 km/h 56 % 0 in /  0.0 mm
11:55 63.9 °F /  17.7 °C 47.8 °F /  8.8 °C 30.3 in /  1026.0 hPa SW 5.8 mph /  9.3 km/h 5.8 mph /  9.3 km/h 56 % 0 in /  0.0 mm
12:00 63.7 °F /  17.6 °C 47.7 °F /  8.7 °C 30.3 in /  1026.0 hPa SW 5.8 mph /  9.3 km/h 5.8 mph /  9.3 km/h 56 % 0 in /  0.0 mm
12:05 63.3 °F /  17.4 °C 46.9 °F /  8.3 °C 30.3 in /  1026.0 hPa WNW 8.1 mph /  13.0 km/h 8.1 mph /  13.0 km/h 55 % 0 in /  0.0 mm
12:10 63.5 °F /  17.5 °C 46.9 °F /  8.3 °C 30.3 in /  1026.0 hPa WSW 5.8 mph /  9.3 km/h 5.8 mph /  9.3 km/h 55 % 0 in /  0.0 mm
12:15 63.7 °F /  17.6 °C 47.1 °F /  8.4 °C 30.3 in /  1026.0 hPa NNE 5.8 mph /  9.3 km/h 5.8 mph /  9.3 km/h 55 % 0 in /  0.0 mm
12:20 63.9 °F /  17.7 °C 46.9 °F /  8.3 °C 30.3 in /  1026.0 hPa WNW 4.6 mph /  7.4 km/h 4.6 mph /  7.4 km/h 54 % 0 in /  0.0 mm
12:25 64.4 °F /  18.0 °C 47.5 °F /  8.6 °C 30.3 in /  1024.9 hPa WNW 3.5 mph /  5.6 km/h 3.5 mph /  5.6 km/h 54 % 0 in /  0.0 mm
12:29 64.6 °F /  18.1 °C 47.7 °F /  8.7 °C 30.3 in /  1024.9 hPa SW 3.5 mph /  5.6 km/h 3.5 mph /  5.6 km/h 54 % 0 in /  0.0 mm
12:34 64.6 °F /  18.1 °C 47.7 °F /  8.7 °C 30.3 in /  1024.9 hPa WSW 8.1 mph /  13.0 km/h 8.1 mph /  13.0 km/h 54 % 0 in /  0.0 mm
12:39 64.8 °F /  18.2 °C 47.1 °F /  8.4 °C 30.3 in /  1024.9 hPa WSW 2.3 mph /  3.7 km/h 2.3 mph /  3.7 km/h 53 % 0 in /  0.0 mm
12:44 64.9 °F /  18.3 °C 47.8 °F /  8.8 °C 30.3 in /  1026.0 hPa West 4.7 mph /  7.6 km/h 4.7 mph /  7.6 km/h 54 % 0 in /  0.0 mm
12:49 64.9 °F /  18.3 °C 47.5 °F /  8.6 °C 30.3 in /  1026.0 hPa WSW 10.4 mph /  16.7 km/h 10.4 mph /  16.7 km/h 53 % 0 in /  0.0 mm
12:54 65.5 °F /  18.6 °C 47.8 °F /  8.8 °C 30.3 in /  1024.9 hPa WNW 3.5 mph /  5.6 km/h 3.5 mph /  5.6 km/h 53 % 0 in /  0.0 mm
12:59 65.8 °F /  18.8 °C 48.2 °F /  9.0 °C 30.3 in /  1024.9 hPa WSW 4.6 mph /  7.4 km/h 4.6 mph /  7.4 km/h 53 % 0 in /  0.0 mm
13:04 66.2 °F /  19.0 °C 48 °F /  8.9 °C 30.3 in /  1024.9 hPa WSW 7.8 mph /  12.6 km/h 7.8 mph /  12.6 km/h 52 % 0 in /  0.0 mm
13:09 65.8 °F /  18.8 °C 48.2 °F /  9.0 °C 30.3 in /  1024.9 hPa WNW 3.5 mph /  5.6 km/h 3.5 mph /  5.6 km/h 53 % 0 in /  0.0 mm
13:10 66 °F /  18.9 °C 48.4 °F /  9.1 °C 30.3 in /  1024.9 hPa NW 3.5 mph /  5.6 km/h 3.5 mph /  5.6 km/h 53 % 0 in /  0.0 mm
13:15 65.7 °F /  18.7 °C 47.5 °F /  8.6 °C 30.3 in /  1024.9 hPa SW 4.6 mph /  7.4 km/h 4.6 mph /  7.4 km/h 52 % 0 in /  0.0 mm
13:20 65.7 °F /  18.7 °C 47.5 °F /  8.6 °C 30.3 in /  1024.9 hPa SW 4.6 mph /  7.4 km/h 4.6 mph /  7.4 km/h 52 % 0 in /  0.0 mm
13:25 66 °F /  18.9 °C 47.8 °F /  8.8 °C 30.3 in /  1026.0 hPa NW 5.8 mph /  9.3 km/h 5.8 mph /  9.3 km/h 52 % 0 in /  0.0 mm
13:30 66 °F /  18.9 °C 47.8 °F /  8.8 °C 30.3 in /  1026.0 hPa WNW 4.6 mph /  7.4 km/h 4.6 mph /  7.4 km/h 52 % 0 in /  0.0 mm
13:35 65.8 °F /  18.8 °C 47.7 °F /  8.7 °C 30.3 in /  1026.0 hPa WNW 3.5 mph /  5.6 km/h 3.5 mph /  5.6 km/h 52 % 0 in /  0.0 mm
13:40 66.4 °F /  19.1 °C 47.7 °F /  8.7 °C 30.3 in /  1026.0 hPa NNE 4.6 mph /  7.4 km/h 4.6 mph /  7.4 km/h 51 % 0 in /  0.0 mm
13:45 66.9 °F /  19.4 °C 48.2 °F /  9.0 °C 30.3 in /  1026.0 hPa WNW 5.8 mph /  9.3 km/h 5.8 mph /  9.3 km/h 51 % 0 in /  0.0 mm
13:50 67.1 °F /  19.5 °C 48.4 °F /  9.1 °C 30.3 in /  1026.0 hPa West 5.8 mph /  9.3 km/h 5.8 mph /  9.3 km/h 51 % 0 in /  0.0 mm
13:55 66.9 °F /  19.4 °C 48.2 °F /  9.0 °C 30.3 in /  1026.0 hPa SW 6.2 mph /  10.0 km/h 6.2 mph /  10.0 km/h 51 % 0 in /  0.0 mm
14:00 66.7 °F /  19.3 °C 47.5 °F /  8.6 °C 30.3 in /  1026.0 hPa WSW 3.5 mph /  5.6 km/h 3.5 mph /  5.6 km/h 50 % 0 in /  0.0 mm
14:05 67.1 °F /  19.5 °C 48.4 °F /  9.1 °C 30.3 in /  1026.0 hPa WNW 4.5 mph /  7.2 km/h 4.5 mph /  7.2 km/h 51 % 0 in /  0.0 mm
14:10 67.5 °F /  19.7 °C 48.2 °F /  9.0 °C 30.3 in /  1026.0 hPa SW 6 mph /  9.7 km/h 6 mph /  9.7 km/h 50 % 0 in /  0.0 mm
14:15 67.3 °F /  19.6 °C 48 °F /  8.9 °C 30.3 in /  1026.0 hPa West 4.6 mph /  7.4 km/h 4.6 mph /  7.4 km/h 50 % 0 in /  0.0 mm
14:20 67.1 °F /  19.5 °C 47.8 °F /  8.8 °C 30.3 in /  1026.0 hPa WSW 3.5 mph /  5.6 km/h 3.5 mph /  5.6 km/h 50 % 0 in /  0.0 mm
14:25 67.6 °F /  19.8 °C 48.4 °F /  9.1 °C 30.3 in /  1026.0 hPa West 8.1 mph /  13.0 km/h 8.1 mph /  13.0 km/h 50 % 0 in /  0.0 mm
14:30 67.6 °F /  19.8 °C 48.4 °F /  9.1 °C 30.3 in /  1026.0 hPa West 4.6 mph /  7.4 km/h 4.6 mph /  7.4 km/h 50 % 0 in /  0.0 mm
14:35 67.6 °F /  19.8 °C 47.8 °F /  8.8 °C 30.3 in /  1026.0 hPa SW 6.2 mph /  10.0 km/h 6.2 mph /  10.0 km/h 49 % 0 in /  0.0 mm
14:40 67.6 °F /  19.8 °C 47.8 °F /  8.8 °C 30.3 in /  1024.9 hPa WNW 5.8 mph /  9.3 km/h 5.8 mph /  9.3 km/h 49 % 0 in /  0.0 mm
14:45 67.5 °F /  19.7 °C 47.7 °F /  8.7 °C 30.3 in /  1024.9 hPa NW 3.5 mph /  5.6 km/h 3.5 mph /  5.6 km/h 49 % 0 in /  0.0 mm
14:50 67.8 °F /  19.9 °C 48.6 °F /  9.2 °C 30.3 in /  1024.9 hPa WSW 3.3 mph /  5.3 km/h 4.9 mph /  7.9 km/h 50 % 0 in /  0.0 mm
14:55 67.6 °F /  19.8 °C 47.8 °F /  8.8 °C 30.2 in /  1023.9 hPa West 4.6 mph /  7.4 km/h 4.6 mph /  7.4 km/h 49 % 0 in /  0.0 mm
15:00 68.4 °F /  20.2 °C 48.6 °F /  9.2 °C 30.2 in /  1023.9 hPa WSW 4.6 mph /  7.4 km/h 4.6 mph /  7.4 km/h 49 % 0 in /  0.0 mm
15:05 68.4 °F /  20.2 °C 48.6 °F /  9.2 °C 30.2 in /  1023.9 hPa WSW 8.1 mph /  13.0 km/h 8.1 mph /  13.0 km/h 49 % 0 in /  0.0 mm
15:10 68.2 °F /  20.1 °C 48.4 °F /  9.1 °C 30.2 in /  1023.9 hPa West 3.6 mph /  5.8 km/h 3.6 mph /  5.8 km/h 49 % 0 in /  0.0 mm
15:20 68.5 °F /  20.3 °C 48.6 °F /  9.2 °C 30.2 in /  1023.9 hPa WSW 8.1 mph /  13.0 km/h 8.1 mph /  13.0 km/h 49 % 0 in /  0.0 mm
15:25 68.5 °F /  20.3 °C 48.6 °F /  9.2 °C 30.2 in /  1023.9 hPa SW 4.6 mph /  7.4 km/h 4.6 mph /  7.4 km/h 49 % 0 in /  0.0 mm
15:30 68.9 °F /  20.5 °C 48.9 °F /  9.4 °C 30.2 in /  1023.9 hPa SW 3.5 mph /  5.6 km/h 3.5 mph /  5.6 km/h 49 % 0 in /  0.0 mm
15:35 68.9 °F /  20.5 °C 48.9 °F /  9.4 °C 30.2 in /  1023.9 hPa SW 6.9 mph /  11.1 km/h 6.9 mph /  11.1 km/h 49 % 0 in /  0.0 mm
15:40 68.2 °F /  20.1 °C 47.7 °F /  8.7 °C 30.2 in /  1022.9 hPa WNW 5.8 mph /  9.3 km/h 5.8 mph /  9.3 km/h 48 % 0 in /  0.0 mm
15:45 68.9 °F /  20.5 °C 48.9 °F /  9.4 °C 30.2 in /  1022.9 hPa WSW 6.9 mph /  11.1 km/h 6.9 mph /  11.1 km/h 49 % 0 in /  0.0 mm
15:50 68.9 °F /  20.5 °C 48.4 °F /  9.1 °C 30.2 in /  1022.9 hPa WSW 3.5 mph /  5.6 km/h 3.5 mph /  5.6 km/h 48 % 0 in /  0.0 mm
15:55 68.9 °F /  20.5 °C 48.4 °F /  9.1 °C 30.2 in /  1023.9 hPa WSW 4 mph /  6.4 km/h 4 mph /  6.4 km/h 48 % 0 in /  0.0 mm
16:00 68.7 °F /  20.4 °C 48.2 °F /  9.0 °C 30.2 in /  1023.9 hPa NW 5.8 mph /  9.3 km/h 5.8 mph /  9.3 km/h 48 % 0 in /  0.0 mm
16:05 69.1 °F /  20.6 °C 48.6 °F /  9.2 °C 30.2 in /  1023.9 hPa West 4.6 mph /  7.4 km/h 4.6 mph /  7.4 km/h 48 % 0 in /  0.0 mm
16:10 68.9 °F /  20.5 °C 48.4 °F /  9.1 °C 30.2 in /  1023.9 hPa WSW 4.6 mph /  7.4 km/h 4.6 mph /  7.4 km/h 48 % 0 in /  0.0 mm
16:15 69.1 °F /  20.6 °C 48.6 °F /  9.2 °C 30.2 in /  1023.9 hPa SW 4.3 mph /  6.9 km/h 4.3 mph /  6.9 km/h 48 % 0 in /  0.0 mm
16:20 68.9 °F /  20.5 °C 48.4 °F /  9.1 °C 30.2 in /  1023.9 hPa WNW 6.9 mph /  11.1 km/h 6.9 mph /  11.1 km/h 48 % 0 in /  0.0 mm
16:25 68.9 °F /  20.5 °C 48.4 °F /  9.1 °C 30.2 in /  1022.9 hPa WSW 3.5 mph /  5.6 km/h 3.5 mph /  5.6 km/h 48 % 0 in /  0.0 mm
16:30 68.9 °F /  20.5 °C 48.4 °F /  9.1 °C 30.2 in /  1022.9 hPa WSW 2.3 mph /  3.7 km/h 2.3 mph /  3.7 km/h 48 % 0 in /  0.0 mm
16:35 68.9 °F /  20.5 °C 48.4 °F /  9.1 °C 30.2 in /  1022.9 hPa WSW 4.6 mph /  7.4 km/h 4.6 mph /  7.4 km/h 48 % 0 in /  0.0 mm
16:40 69.3 °F /  20.7 °C 48.7 °F /  9.3 °C 30.2 in /  1022.9 hPa West 3.5 mph /  5.6 km/h 3.5 mph /  5.6 km/h 48 % 0 in /  0.0 mm
16:45 69.4 °F /  20.8 °C 48.9 °F /  9.4 °C 30.2 in /  1022.9 hPa NW 4.6 mph /  7.4 km/h 4.6 mph /  7.4 km/h 48 % 0 in /  0.0 mm
16:50 69.3 °F /  20.7 °C 48.7 °F /  9.3 °C 30.2 in /  1022.9 hPa WSW 5.8 mph /  9.3 km/h 5.8 mph /  9.3 km/h 48 % 0 in /  0.0 mm
16:55 69.3 °F /  20.7 °C 48.2 °F /  9.0 °C 30.2 in /  1022.9 hPa NW 2.3 mph /  3.7 km/h 2.3 mph /  3.7 km/h 47 % 0 in /  0.0 mm
17:00 69.6 °F /  20.9 °C 49.1 °F /  9.5 °C 30.2 in /  1022.9 hPa SW 3.5 mph /  5.6 km/h 3.5 mph /  5.6 km/h 48 % 0 in /  0.0 mm
17:05 69.6 °F /  20.9 °C 48.6 °F /  9.2 °C 30.2 in /  1022.9 hPa West 5.8 mph /  9.3 km/h 5.8 mph /  9.3 km/h 47 % 0 in /  0.0 mm
17:10 69.4 °F /  20.8 °C 48.4 °F /  9.1 °C 30.2 in /  1022.9 hPa WSW 5.8 mph /  9.3 km/h 5.8 mph /  9.3 km/h 47 % 0 in /  0.0 mm
17:15 69.8 °F /  21.0 °C 48.7 °F /  9.3 °C 30.2 in /  1022.9 hPa WNW 3.5 mph /  5.6 km/h 3.5 mph /  5.6 km/h 47 % 0 in /  0.0 mm
17:20 69.8 °F /  21.0 °C 48.7 °F /  9.3 °C 30.2 in /  1022.9 hPa WSW 3.5 mph /  5.6 km/h 3.5 mph /  5.6 km/h 47 % 0 in /  0.0 mm
17:21 69.6 °F /  20.9 °C 48.6 °F /  9.2 °C 30.2 in /  1022.9 hPa West 3.6 mph /  5.8 km/h 3.6 mph /  5.8 km/h 47 % 0 in /  0.0 mm
17:26 69.1 °F /  20.6 °C 48 °F /  8.9 °C 30.2 in /  1022.9 hPa West 3.5 mph /  5.6 km/h 3.5 mph /  5.6 km/h 47 % 0 in /  0.0 mm
17:31 68.5 °F /  20.3 °C 47.5 °F /  8.6 °C 30.2 in /  1022.9 hPa WNW 3.8 mph /  6.1 km/h 3.8 mph /  6.1 km/h 47 % 0 in /  0.0 mm
17:36 68.5 °F /  20.3 °C 47.5 °F /  8.6 °C 30.2 in /  1022.9 hPa North 3.5 mph /  5.6 km/h 3.5 mph /  5.6 km/h 47 % 0 in /  0.0 mm
17:41 68 °F /  20.0 °C 46.9 °F /  8.3 °C 30.2 in /  1022.9 hPa SSW 3.5 mph /  5.6 km/h 3.5 mph /  5.6 km/h 47 % 0 in /  0.0 mm
17:46 68 °F /  20.0 °C 46.9 °F /  8.3 °C 30.2 in /  1022.9 hPa NNW 4.6 mph /  7.4 km/h 4.6 mph /  7.4 km/h 47 % 0 in /  0.0 mm
17:51 67.8 °F /  19.9 °C 46.8 °F /  8.2 °C 30.2 in /  1022.9 hPa NW 3.5 mph /  5.6 km/h 3.5 mph /  5.6 km/h 47 % 0 in /  0.0 mm
17:56 67.6 °F /  19.8 °C 46.8 °F /  8.2 °C 30.2 in /  1022.9 hPa West 3.5 mph /  5.6 km/h 3.5 mph /  5.6 km/h 47 % 0 in /  0.0 mm
18:01 67.8 °F /  19.9 °C 46.8 °F /  8.2 °C 30.2 in /  1022.9 hPa WNW 2.3 mph /  3.7 km/h 2.3 mph /  3.7 km/h 47 % 0 in /  0.0 mm
18:06 67.6 °F /  19.8 °C 46.8 °F /  8.2 °C 30.2 in /  1022.9 hPa WNW 2.3 mph /  3.7 km/h 2.3 mph /  3.7 km/h 47 % 0 in /  0.0 mm
18:11 67.5 °F /  19.7 °C 47.1 °F /  8.4 °C 30.2 in /  1022.9 hPa WNW 3.5 mph /  5.6 km/h 3.5 mph /  5.6 km/h 48 % 0 in /  0.0 mm
18:16 67.3 °F /  19.6 °C 46.9 °F /  8.3 °C 30.2 in /  1022.9 hPa West 3.5 mph /  5.6 km/h 3.5 mph /  5.6 km/h 48 % 0 in /  0.0 mm
18:21 66.9 °F /  19.4 °C 46.6 °F /  8.1 °C 30.2 in /  1022.9 hPa NNW 3.5 mph /  5.6 km/h 3.5 mph /  5.6 km/h 48 % 0 in /  0.0 mm
18:26 66.6 °F /  19.2 °C 46.2 °F /  7.9 °C 30.2 in /  1022.9 hPa SW 2.9 mph /  4.7 km/h 2.9 mph /  4.7 km/h 48 % 0 in /  0.0 mm
18:31 66.4 °F /  19.1 °C 46 °F /  7.8 °C 30.2 in /  1022.9 hPa WSW 3.5 mph /  5.6 km/h 3.5 mph /  5.6 km/h 48 % 0 in /  0.0 mm
18:36 66.2 °F /  19.0 °C 45.9 °F /  7.7 °C 30.2 in /  1022.9 hPa WNW 5.8 mph /  9.3 km/h 5.8 mph /  9.3 km/h 48 % 0 in /  0.0 mm
18:41 65.8 °F /  18.8 °C 46 °F /  7.8 °C 30.2 in /  1022.9 hPa North 3.5 mph /  5.6 km/h 3.5 mph /  5.6 km/h 49 % 0 in /  0.0 mm
18:46 65.7 °F /  18.7 °C 46 °F /  7.8 °C 30.2 in /  1022.9 hPa WNW 3.5 mph /  5.6 km/h 3.5 mph /  5.6 km/h 49 % 0 in /  0.0 mm
18:51 65.1 °F /  18.4 °C 45.5 °F /  7.5 °C 30.2 in /  1022.9 hPa SW 3.5 mph /  5.6 km/h 3.5 mph /  5.6 km/h 49 % 0 in /  0.0 mm
18:56 64.8 °F /  18.2 °C 45.1 °F /  7.3 °C 30.2 in /  1022.9 hPa WSW 2.9 mph /  4.7 km/h 2.9 mph /  4.7 km/h 49 % 0 in /  0.0 mm
19:01 64.4 °F /  18.0 °C 44.8 °F /  7.1 °C 30.2 in /  1022.9 hPa West 2.4 mph /  3.9 km/h 2.4 mph /  3.9 km/h 49 % 0 in /  0.0 mm
19:06 64.2 °F /  17.9 °C 44.6 °F /  7.0 °C 30.2 in /  1022.9 hPa SW 2.3 mph /  3.7 km/h 2.3 mph /  3.7 km/h 49 % 0 in /  0.0 mm
19:11 63.9 °F /  17.7 °C 44.2 °F /  6.8 °C 30.2 in /  1022.9 hPa SW 1.4 mph /  2.3 km/h   49 % 0 in /  0.0 mm
19:16 63.5 °F /  17.5 °C 44.4 °F /  6.9 °C 30.2 in /  1022.9 hPa WNW 1.2 mph /  1.9 km/h 1.2 mph /  1.9 km/h 50 % 0 in /  0.0 mm
19:21 63.1 °F /  17.3 °C 44.2 °F /  6.8 °C 30.2 in /  1022.9 hPa NW 1.2 mph /  1.9 km/h   50 % 0 in /  0.0 mm
19:26 62.8 °F /  17.1 °C 43.9 °F /  6.6 °C 30.2 in /  1023.9 hPa Calm     50 % 0 in /  0.0 mm
19:31 62.6 °F /  17.0 °C 43.7 °F /  6.5 °C 30.2 in /  1023.9 hPa Calm     50 % 0 in /  0.0 mm
19:36 62.6 °F /  17.0 °C 43.7 °F /  6.5 °C 30.2 in /  1023.9 hPa West 1.2 mph /  1.9 km/h 1.2 mph /  1.9 km/h 50 % 0 in /  0.0 mm
19:41 62.4 °F /  16.9 °C 44.6 °F /  7.0 °C 30.2 in /  1023.9 hPa West 1.2 mph /  1.9 km/h 1.2 mph /  1.9 km/h 52 % 0 in /  0.0 mm
19:46 62.2 °F /  16.8 °C 44.4 °F /  6.9 °C 30.2 in /  1023.9 hPa West 1.4 mph /  2.3 km/h   52 % 0 in /  0.0 mm
19:51 61.9 °F /  16.6 °C 44.1 °F /  6.7 °C 30.2 in /  1023.9 hPa West 1.4 mph /  2.3 km/h 1.4 mph /  2.3 km/h 52 % 0 in /  0.0 mm
19:56 61.9 °F /  16.6 °C 44.1 °F /  6.7 °C 30.2 in /  1023.9 hPa West 2.3 mph /  3.7 km/h 2.3 mph /  3.7 km/h 52 % 0 in /  0.0 mm
20:01 61.9 °F /  16.6 °C 44.1 °F /  6.7 °C 30.2 in /  1023.9 hPa WSW 2.3 mph /  3.7 km/h 2.3 mph /  3.7 km/h 52 % 0 in /  0.0 mm
20:06 62.1 °F /  16.7 °C 44.2 °F /  6.8 °C 30.2 in /  1023.9 hPa West 2.6 mph /  4.2 km/h 2.6 mph /  4.2 km/h 52 % 0 in /  0.0 mm
20:11 61.9 °F /  16.6 °C 44.1 °F /  6.7 °C 30.2 in /  1023.9 hPa WSW 3.5 mph /  5.6 km/h 3.5 mph /  5.6 km/h 52 % 0 in /  0.0 mm
20:16 61.9 °F /  16.6 °C 44.1 °F /  6.7 °C 30.2 in /  1023.9 hPa West 2 mph /  3.2 km/h 2 mph /  3.2 km/h 52 % 0 in /  0.0 mm
20:21 61.7 °F /  16.5 °C 44.4 °F /  6.9 °C 30.2 in /  1023.9 hPa WSW 1.4 mph /  2.3 km/h 1.4 mph /  2.3 km/h 53 % 0 in /  0.0 mm
20:26 61.5 °F /  16.4 °C 44.2 °F /  6.8 °C 30.2 in /  1023.9 hPa WSW 2.3 mph /  3.7 km/h 2.3 mph /  3.7 km/h 53 % 0 in /  0.0 mm
20:31 61.3 °F /  16.3 °C 44.1 °F /  6.7 °C 30.2 in /  1023.9 hPa WSW 1.2 mph /  1.9 km/h   53 % 0 in /  0.0 mm
20:36 61.2 °F /  16.2 °C 43.9 °F /  6.6 °C 30.2 in /  1023.9 hPa Calm     53 % 0 in /  0.0 mm
20:41 61.2 °F /  16.2 °C 43.9 °F /  6.6 °C 30.2 in /  1023.9 hPa WNW 1.4 mph /  2.3 km/h   53 % 0 in /  0.0 mm
20:46 61.2 °F /  16.2 °C 43.9 °F /  6.6 °C 30.2 in /  1023.9 hPa WSW 2.3 mph /  3.7 km/h 2.3 mph /  3.7 km/h 53 % 0 in /  0.0 mm
20:51 61.2 °F /  16.2 °C 43.9 °F /  6.6 °C 30.2 in /  1023.9 hPa West 2 mph /  3.2 km/h   53 % 0 in /  0.0 mm
20:56 61.2 °F /  16.2 °C 43.9 °F /  6.6 °C 30.2 in /  1023.9 hPa West 2.3 mph /  3.7 km/h 2.3 mph /  3.7 km/h 53 % 0 in /  0.0 mm
21:06 61 °F /  16.1 °C 43.7 °F /  6.5 °C 30.2 in /  1023.9 hPa WSW 2.3 mph /  3.7 km/h   53 % 0 in /  0.0 mm
21:11 60.8 °F /  16.0 °C 43.5 °F /  6.4 °C 30.2 in /  1023.9 hPa SW 2.3 mph /  3.7 km/h   53 % 0 in /  0.0 mm
21:16 60.6 °F /  15.9 °C 43.9 °F /  6.6 °C 30.2 in /  1023.9 hPa Calm     54 % 0 in /  0.0 mm
21:21 60.3 °F /  15.7 °C 43.5 °F /  6.4 °C 30.2 in /  1023.9 hPa West 1.4 mph /  2.3 km/h 1.4 mph /  2.3 km/h 54 % 0 in /  0.0 mm
21:26 60.1 °F /  15.6 °C 43.3 °F /  6.3 °C 30.2 in /  1023.9 hPa WSW 2.4 mph /  3.9 km/h 2.4 mph /  3.9 km/h 54 % 0 in /  0.0 mm
21:31 59.9 °F /  15.5 °C 43.2 °F /  6.2 °C 30.2 in /  1023.9 hPa WSW 1.4 mph /  2.3 km/h 1.4 mph /  2.3 km/h 54 % 0 in /  0.0 mm
21:36 59.7 °F /  15.4 °C 43 °F /  6.1 °C 30.2 in /  1023.9 hPa West 2.3 mph /  3.7 km/h 2.3 mph /  3.7 km/h 54 % 0 in /  0.0 mm
21:41 59.7 °F /  15.4 °C 43 °F /  6.1 °C 30.2 in /  1023.9 hPa West 1.2 mph /  1.9 km/h   54 % 0 in /  0.0 mm
21:46 59.5 °F /  15.3 °C 43 °F /  6.1 °C 30.2 in /  1023.9 hPa West 1.6 mph /  2.6 km/h   54 % 0 in /  0.0 mm
21:51 59.5 °F /  15.3 °C 43.3 °F /  6.3 °C 30.2 in /  1023.9 hPa WSW 1.2 mph /  1.9 km/h   55 % 0 in /  0.0 mm
21:56 59.4 °F /  15.2 °C 43.2 °F /  6.2 °C 30.2 in /  1023.9 hPa WSW 1.2 mph /  1.9 km/h 1.2 mph /  1.9 km/h 55 % 0 in /  0.0 mm
22:01 59.2 °F /  15.1 °C 43 °F /  6.1 °C 30.2 in /  1023.9 hPa SW 1.2 mph /  1.9 km/h 1.2 mph /  1.9 km/h 55 % 0 in /  0.0 mm
22:06 58.8 °F /  14.9 °C 43.2 °F /  6.2 °C 30.2 in /  1023.9 hPa Calm     56 % 0 in /  0.0 mm
22:11 58.5 °F /  14.7 °C 42.8 °F /  6.0 °C 30.2 in /  1023.9 hPa Calm     56 % 0 in /  0.0 mm
22:16 58.3 °F /  14.6 °C 42.6 °F /  5.9 °C 30.2 in /  1023.9 hPa West 1.2 mph /  1.9 km/h   56 % 0 in /  0.0 mm
22:21 58.3 °F /  14.6 °C 42.6 °F /  5.9 °C 30.2 in /  1023.9 hPa Calm     56 % 0 in /  0.0 mm
22:26 58.3 °F /  14.6 °C 42.3 °F /  5.7 °C 30.2 in /  1023.9 hPa NW 1.2 mph /  1.9 km/h 1.2 mph /  1.9 km/h 55 % 0 in /  0.0 mm
22:31 58.3 °F /  14.6 °C 42.6 °F /  5.9 °C 30.2 in /  1023.9 hPa Calm     56 % 0 in /  0.0 mm
22:36 58.1 °F /  14.5 °C 42.4 °F /  5.8 °C 30.2 in /  1023.9 hPa West 0.9 mph /  1.4 km/h 1.2 mph /  1.9 km/h 56 % 0 in /  0.0 mm
22:41 58.1 °F /  14.5 °C 42.4 °F /  5.8 °C 30.3 in /  1024.9 hPa Calm     56 % 0 in /  0.0 mm
22:46 58.1 °F /  14.5 °C 42.4 °F /  5.8 °C 30.3 in /  1024.9 hPa NNE 1.2 mph /  1.9 km/h 1.2 mph /  1.9 km/h 56 % 0 in /  0.0 mm
22:51 57.9 °F /  14.4 °C 42.3 °F /  5.7 °C 30.3 in /  1024.9 hPa Calm     56 % 0 in /  0.0 mm
22:56 57.9 °F /  14.4 °C 42.3 °F /  5.7 °C 30.3 in /  1024.9 hPa Calm     56 % 0 in /  0.0 mm
23:01 57.7 °F /  14.3 °C 42.1 °F /  5.6 °C 30.3 in /  1024.9 hPa Calm     56 % 0 in /  0.0 mm
23:06 57.7 °F /  14.3 °C 42.6 °F /  5.9 °C 30.3 in /  1024.9 hPa Calm     57 % 0 in /  0.0 mm
23:11 57.6 °F /  14.2 °C 42.4 °F /  5.8 °C 30.3 in /  1024.9 hPa WNW 1.2 mph /  1.9 km/h   57 % 0 in /  0.0 mm
23:16 57.6 °F /  14.2 °C 42.4 °F /  5.8 °C 30.3 in /  1024.9 hPa WNW 1.2 mph /  1.9 km/h   57 % 0 in /  0.0 mm
23:21 57.4 °F /  14.1 °C 42.3 °F /  5.7 °C 30.3 in /  1024.9 hPa WNW 1.2 mph /  1.9 km/h 1.2 mph /  1.9 km/h 57 % 0 in /  0.0 mm
23:26 57.2 °F /  14.0 °C 42.1 °F /  5.6 °C 30.3 in /  1024.9 hPa NE 1.2 mph /  1.9 km/h   57 % 0 in /  0.0 mm
23:31 57 °F /  13.9 °C 42.4 °F /  5.8 °C 30.3 in /  1024.9 hPa NE 2 mph /  3.2 km/h   58 % 0 in /  0.0 mm
23:36 57 °F /  13.9 °C 42.4 °F /  5.8 °C 30.3 in /  1024.9 hPa WNW 2.3 mph /  3.7 km/h 2.3 mph /  3.7 km/h 58 % 0 in /  0.0 mm
23:41 57 °F /  13.9 °C 42.4 °F /  5.8 °C 30.3 in /  1024.9 hPa NNE 1.2 mph /  1.9 km/h   58 % 0 in /  0.0 mm
23:46 56.8 °F /  13.8 °C 42.6 °F /  5.9 °C 30.3 in /  1024.9 hPa WNW 1.2 mph /  1.9 km/h   59 % 0 in /  0.0 mm
23:51 56.1 °F /  13.4 °C 42.1 °F /  5.6 °C 30.3 in /  1024.9 hPa SW 2.2 mph /  3.5 km/h 2.2 mph /  3.5 km/h 59 % 0 in /  0.0 mm
23:56 55.4 °F /  13.0 °C 41.4 °F /  5.2 °C 30.3 in /  1024.9 hPa WSW 2.4 mph /  3.9 km/h 2.4 mph /  3.9 km/h 59 % 0 in /  0.0 mm
Meteo Sesrovires
Elogis d' Weather Underground - 3.5 mb

Guio original per  Jim McMurry - jmcmurry@mwt.net Adaptat per a la plantilla per  Wim van der Kuil - Leuven-Template.eu

Trobareu la nostra informacio del temps tambe a:

Weather Underground

AWEKAS